Time,TemperatureF,DewpointF,PressureIn,WindDirection,WindDirectionDegrees,WindSpeedMPH,WindSpeedGustMPH,Humidity,HourlyPrecipIn,Conditions,Clouds,dailyrainin,SoftwareType,DateUTC
2013-06-15 00:01:00,58.3,-41.9,29.74,South,180,0.0,-999.0,0,-99.99,,,0.00,Acu-Link.com,2013-06-15 04:01:00,
2013-06-15 00:17:00,58.1,-42.0,29.74,ESE,112,0.0,-999.0,0,-99.99,,,0.00,Acu-Link.com,2013-06-15 04:17:00,
2013-06-15 00:32:00,57.9,-42.1,29.75,NNW,337,0.0,-999.0,0,-99.99,,,0.00,Acu-Link.com,2013-06-15 04:32:00,
2013-06-15 00:47:00,58.1,-42.0,29.74,SE,135,0.0,-999.0,0,-99.99,,,0.00,Acu-Link.com,2013-06-15 04:47:00,
2013-06-15 01:03:00,58.1,-42.0,29.74,South,180,0.0,-999.0,0,-99.99,,,0.00,Acu-Link.com,2013-06-15 05:03:00,
2013-06-15 01:18:00,58.5,-41.8,29.73,South,180,0.0,-999.0,0,-99.99,,,0.00,Acu-Link.com,2013-06-15 05:18:00,
2013-06-15 01:33:00,58.1,-42.0,29.75,WSW,247,0.0,-999.0,0,-99.99,,,0.00,Acu-Link.com,2013-06-15 05:33:00,
2013-06-15 01:48:00,58.1,-42.0,29.75,SSW,202,0.0,-999.0,0,-99.99,,,0.00,Acu-Link.com,2013-06-15 05:48:00,
2013-06-15 02:04:00,57.7,-42.3,29.74,SSW,202,0.0,-999.0,0,-99.99,,,0.00,Acu-Link.com,2013-06-15 06:04:00,
2013-06-15 02:19:00,57.9,-42.1,29.76,NW,315,0.0,-999.0,0,-99.99,,,0.00,Acu-Link.com,2013-06-15 06:19:00,
2013-06-15 02:34:00,58.3,-41.9,29.75,SSE,157,0.0,-999.0,0,-99.99,,,0.00,Acu-Link.com,2013-06-15 06:34:00,
2013-06-15 02:50:00,58.1,-42.0,29.76,ESE,112,0.0,-999.0,0,-99.99,,,0.00,Acu-Link.com,2013-06-15 06:50:00,
2013-06-15 03:05:00,58.3,-41.9,29.76,SE,135,1.7,-999.0,0,-99.99,,,0.00,Acu-Link.com,2013-06-15 07:05:00,
2013-06-15 03:20:00,58.5,-41.8,29.76,SSE,157,0.0,-999.0,0,-99.99,,,0.00,Acu-Link.com,2013-06-15 07:20:00,
2013-06-15 03:36:00,58.3,-41.9,29.78,ESE,112,0.0,-999.0,0,-99.99,,,0.00,Acu-Link.com,2013-06-15 07:36:00,
2013-06-15 03:51:00,58.3,-41.9,29.77,WNW,292,0.0,-999.0,0,-99.99,,,0.00,Acu-Link.com,2013-06-15 07:51:00,
2013-06-15 04:06:00,57.7,-42.3,29.76,SW,225,0.0,-999.0,0,-99.99,,,0.00,Acu-Link.com,2013-06-15 08:06:00,
2013-06-15 04:21:00,57.6,-42.3,29.76,ESE,112,0.0,-999.0,0,-99.99,,,0.00,Acu-Link.com,2013-06-15 08:21:00,
2013-06-15 04:36:00,57.9,-42.1,29.77,NNE,22,2.2,-999.0,0,-99.99,,,0.00,Acu-Link.com,2013-06-15 08:36:00,
2013-06-15 04:52:00,57.9,-42.1,29.76,WSW,247,0.0,-999.0,0,-99.99,,,0.00,Acu-Link.com,2013-06-15 08:52:00,
2013-06-15 05:07:00,57.9,-42.1,29.77,ENE,67,0.0,-999.0,0,-99.99,,,0.00,Acu-Link.com,2013-06-15 09:07:00,
2013-06-15 05:22:00,57.2,-42.6,29.79,South,180,0.0,-999.0,0,-99.99,,,0.00,Acu-Link.com,2013-06-15 09:22:00,
2013-06-15 05:37:00,56.8,-42.8,29.78,SW,225,0.0,-999.0,0,-99.99,,,0.00,Acu-Link.com,2013-06-15 09:37:00,
2013-06-15 05:52:00,56.5,-43.0,29.80,South,180,0.0,-999.0,0,-99.99,,,0.00,Acu-Link.com,2013-06-15 09:52:00,
2013-06-15 06:08:00,56.5,-43.0,29.81,West,270,0.0,-999.0,0,-99.99,,,0.00,Acu-Link.com,2013-06-15 10:08:00,
2013-06-15 06:23:00,57.0,-42.7,29.81,South,180,0.0,-999.0,0,-99.99,,,0.00,Acu-Link.com,2013-06-15 10:23:00,
2013-06-15 06:38:00,57.6,-42.3,29.79,SSW,202,0.0,-999.0,0,-99.99,,,0.00,Acu-Link.com,2013-06-15 10:38:00,
2013-06-15 06:54:00,58.1,-42.0,29.80,ESE,112,0.0,-999.0,0,-99.99,,,0.00,Acu-Link.com,2013-06-15 10:54:00,
2013-06-15 07:09:00,58.6,-41.7,29.82,SW,225,0.0,-999.0,0,-99.99,,,0.00,Acu-Link.com,2013-06-15 11:09:00,
2013-06-15 07:24:00,59.4,-41.2,29.82,SSW,202,0.0,-999.0,0,-99.99,,,0.00,Acu-Link.com,2013-06-15 11:24:00,
2013-06-15 07:39:00,60.3,-40.7,29.81,SSW,202,0.0,-999.0,0,-99.99,,,0.00,Acu-Link.com,2013-06-15 11:39:00,
2013-06-15 07:54:00,61.2,-40.1,29.83,ESE,112,0.0,-999.0,0,-99.99,,,0.00,Acu-Link.com,2013-06-15 11:54:00,
2013-06-15 08:10:00,62.4,-39.4,29.84,SSW,202,0.0,-999.0,0,-99.99,,,0.00,Acu-Link.com,2013-06-15 12:10:00,
2013-06-15 08:25:00,63.3,-38.9,29.84,NE,45,0.0,-999.0,0,-99.99,,,0.00,Acu-Link.com,2013-06-15 12:25:00,
2013-06-15 08:40:00,64.8,-7.7,29.84,SSE,157,1.1,-999.0,5,-99.99,,,0.00,Acu-Link.com,2013-06-15 12:40:00,
2013-06-15 08:56:00,65.8,43.3,29.86,ESE,112,0.0,-999.0,44,-99.99,,,0.00,Acu-Link.com,2013-06-15 12:56:00,
2013-06-15 09:11:00,66.7,58.5,29.85,East,90,0.0,-999.0,75,-99.99,,,0.00,Acu-Link.com,2013-06-15 13:11:00,
2013-06-15 09:26:00,68.5,61.4,29.85,South,180,1.7,-999.0,78,-99.99,,,0.00,Acu-Link.com,2013-06-15 13:26:00,
2013-06-15 09:42:00,71.2,58.4,29.87,East,90,0.0,-999.0,64,-99.99,,,0.00,Acu-Link.com,2013-06-15 13:42:00,
2013-06-15 09:57:00,74.1,60.2,29.86,South,180,0.0,-999.0,62,-99.99,,,0.00,Acu-Link.com,2013-06-15 13:57:00,
2013-06-15 10:12:00,74.3,61.3,29.85,NNW,337,1.7,-999.0,64,-99.99,,,0.00,Acu-Link.com,2013-06-15 14:12:00,
2013-06-15 10:27:00,73.9,61.4,29.86,ENE,67,0.0,-999.0,65,-99.99,,,0.00,Acu-Link.com,2013-06-15 14:27:00,
2013-06-15 10:42:00,77.9,63.8,29.86,NNE,22,0.0,-999.0,62,-99.99,,,0.00,Acu-Link.com,2013-06-15 14:42:00,
2013-06-15 10:58:00,78.8,61.8,29.84,NNE,22,0.0,-999.0,56,-99.99,,,0.00,Acu-Link.com,2013-06-15 14:58:00,
2013-06-15 11:13:00,77.9,58.3,29.85,South,180,0.0,-999.0,51,-99.99,,,0.00,Acu-Link.com,2013-06-15 15:13:00,
2013-06-15 11:28:00,79.2,57.8,29.86,SE,135,0.0,-999.0,48,-99.99,,,0.00,Acu-Link.com,2013-06-15 15:28:00,
2013-06-15 11:44:00,81.7,58.9,29.86,NNW,337,0.0,-999.0,46,-99.99,,,0.00,Acu-Link.com,2013-06-15 15:44:00,
2013-06-15 11:59:00,79.7,56.5,29.86,WNW,292,0.0,-999.0,45,-99.99,,,0.00,Acu-Link.com,2013-06-15 15:59:00,
2013-06-15 12:14:00,79.2,58.4,29.85,East,90,0.0,-999.0,49,-99.99,,,0.00,Acu-Link.com,2013-06-15 16:14:00,
2013-06-15 12:30:00,78.4,55.9,29.85,NE,45,1.7,-999.0,46,-99.99,,,0.00,Acu-Link.com,2013-06-15 16:30:00,
2013-06-15 12:45:00,83.1,57.6,29.85,NE,45,2.7,-999.0,42,-99.99,,,0.00,Acu-Link.com,2013-06-15 16:45:00,
2013-06-15 13:00:00,82.6,55.8,29.83,SE,135,0.0,-999.0,40,-99.99,,,0.00,Acu-Link.com,2013-06-15 17:00:00,
2013-06-15 13:15:00,81.3,57.3,29.83,East,90,1.7,-999.0,44,-99.99,,,0.00,Acu-Link.com,2013-06-15 17:15:00,
2013-06-15 13:31:00,81.9,57.8,29.85,NE,45,1.1,-999.0,44,-99.99,,,0.00,Acu-Link.com,2013-06-15 17:31:00,
2013-06-15 13:46:00,78.4,55.3,29.82,ESE,112,2.2,-999.0,45,-99.99,,,0.00,Acu-Link.com,2013-06-15 17:46:00,
2013-06-15 14:01:00,83.8,57.6,29.82,ESE,112,0.0,-999.0,41,-99.99,,,0.00,Acu-Link.com,2013-06-15 18:01:00,
2013-06-15 14:17:00,86.2,59.0,29.84,WSW,247,0.0,-999.0,40,-99.99,,,0.00,Acu-Link.com,2013-06-15 18:17:00,
2013-06-15 14:32:00,84.2,57.9,29.82,NNE,22,2.2,-999.0,41,-99.99,,,0.00,Acu-Link.com,2013-06-15 18:32:00,
2013-06-15 14:48:00,84.0,59.7,29.82,SSW,202,0.0,-999.0,44,-99.99,,,0.00,Acu-Link.com,2013-06-15 18:48:00,
2013-06-15 15:03:00,87.4,62.8,29.80,WSW,247,0.0,-999.0,44,-99.99,,,0.00,Acu-Link.com,2013-06-15 19:03:00,
2013-06-15 15:18:00,87.4,59.4,29.82,SW,225,0.0,-999.0,39,-99.99,,,0.00,Acu-Link.com,2013-06-15 19:18:00,
2013-06-15 15:33:00,84.0,57.1,29.81,SSE,157,0.0,-999.0,40,-99.99,,,0.00,Acu-Link.com,2013-06-15 19:33:00,
2013-06-15 15:48:00,84.9,58.5,29.81,SE,135,0.0,-999.0,41,-99.99,,,0.00,Acu-Link.com,2013-06-15 19:48:00,
2013-06-15 16:04:00,84.6,58.9,29.80,East,90,3.7,-999.0,42,-99.99,,,0.00,Acu-Link.com,2013-06-15 20:04:00,
2013-06-15 16:19:00,80.4,57.1,29.79,ENE,67,0.0,-999.0,45,-99.99,,,0.00,Acu-Link.com,2013-06-15 20:19:00,
2013-06-15 16:34:00,85.5,59.1,29.80,SSW,202,0.0,-999.0,41,-99.99,,,0.00,Acu-Link.com,2013-06-15 20:34:00,
2013-06-15 16:50:00,85.8,57.9,29.81,WNW,292,0.0,-999.0,39,-99.99,,,0.00,Acu-Link.com,2013-06-15 20:50:00,
2013-06-15 17:05:00,86.5,58.6,29.80,SSW,202,2.7,-999.0,39,-99.99,,,0.00,Acu-Link.com,2013-06-15 21:05:00,
2013-06-15 17:20:00,86.9,58.2,29.80,WSW,247,0.0,-999.0,38,-99.99,,,0.00,Acu-Link.com,2013-06-15 21:20:00,
2013-06-15 17:36:00,85.8,59.3,29.78,SSW,202,2.7,-999.0,41,-99.99,,,0.00,Acu-Link.com,2013-06-15 21:36:00,
2013-06-15 17:51:00,85.3,58.2,29.80,WSW,247,0.0,-999.0,40,-99.99,,,0.00,Acu-Link.com,2013-06-15 21:51:00,
2013-06-15 18:06:00,86.4,59.9,29.80,SSW,202,0.0,-999.0,41,-99.99,,,0.00,Acu-Link.com,2013-06-15 22:06:00,
2013-06-15 18:21:00,84.4,58.8,29.81,West,270,0.0,-999.0,42,-99.99,,,0.00,Acu-Link.com,2013-06-15 22:21:00,
2013-06-15 18:37:00,83.1,59.5,29.79,West,270,0.0,-999.0,45,-99.99,,,0.00,Acu-Link.com,2013-06-15 22:37:00,
2013-06-15 18:52:00,80.6,61.3,29.80,West,270,0.0,-999.0,52,-99.99,,,0.00,Acu-Link.com,2013-06-15 22:52:00,
2013-06-15 19:07:00,78.6,60.5,29.81,WNW,292,0.0,-999.0,54,-99.99,,,0.00,Acu-Link.com,2013-06-15 23:07:00,
2013-06-15 19:22:00,77.2,60.8,29.80,SW,225,0.0,-999.0,57,-99.99,,,0.00,Acu-Link.com,2013-06-15 23:22:00,
2013-06-15 19:38:00,76.5,60.6,29.79,WSW,247,0.0,-999.0,58,-99.99,,,0.00,Acu-Link.com,2013-06-15 23:38:00,
2013-06-15 19:53:00,74.5,61.1,29.79,South,180,0.0,-999.0,63,-99.99,,,0.00,Acu-Link.com,2013-06-15 23:53:00,
2013-06-15 20:08:00,72.9,60.4,29.81,ESE,112,0.0,-999.0,65,-99.99,,,0.00,Acu-Link.com,2013-06-16 00:08:00,
2013-06-15 20:24:00,70.9,61.8,29.81,East,90,0.0,-999.0,73,-99.99,,,0.00,Acu-Link.com,2013-06-16 00:24:00,
2013-06-15 20:39:00,68.4,64.7,29.81,NE,45,0.0,-999.0,88,-99.99,,,0.00,Acu-Link.com,2013-06-16 00:39:00,
2013-06-15 20:54:00,66.9,66.3,29.81,ENE,67,0.0,-999.0,98,-99.99,,,0.00,Acu-Link.com,2013-06-16 00:54:00,
2013-06-15 21:09:00,65.8,65.2,29.82,NE,45,0.0,-999.0,98,-99.99,,,0.00,Acu-Link.com,2013-06-16 01:09:00,
2013-06-15 21:25:00,64.8,64.2,29.82,WNW,292,0.0,-999.0,98,-99.99,,,0.00,Acu-Link.com,2013-06-16 01:25:00,
2013-06-15 21:40:00,64.2,63.6,29.82,SE,135,0.0,-999.0,98,-99.99,,,0.00,Acu-Link.com,2013-06-16 01:40:00,
2013-06-15 21:55:00,63.5,62.9,29.83,NE,45,0.0,-999.0,98,-99.99,,,0.00,Acu-Link.com,2013-06-16 01:55:00,
2013-06-15 22:10:00,63.1,62.5,29.85,ENE,67,0.0,-999.0,98,-99.99,,,0.00,Acu-Link.com,2013-06-16 02:10:00,
2013-06-15 22:26:00,62.8,62.2,29.85,NE,45,0.0,-999.0,98,-99.99,,,0.00,Acu-Link.com,2013-06-16 02:26:00,
2013-06-15 22:41:00,62.4,61.8,29.85,ENE,67,0.0,-999.0,98,-99.99,,,0.00,Acu-Link.com,2013-06-16 02:41:00,
2013-06-15 22:56:00,62.2,61.6,29.85,ENE,67,0.0,-999.0,98,-99.99,,,0.00,Acu-Link.com,2013-06-16 02:56:00,
2013-06-15 23:12:00,62.1,61.5,29.87,ENE,67,0.0,-999.0,98,-99.99,,,0.00,Acu-Link.com,2013-06-16 03:12:00,
2013-06-15 23:27:00,61.9,61.3,29.87,NE,45,0.0,-999.0,98,-99.99,,,0.00,Acu-Link.com,2013-06-16 03:27:00,
2013-06-15 23:42:00,61.7,61.1,29.84,NE,45,0.0,-999.0,98,-99.99,,,0.00,Acu-Link.com,2013-06-16 03:42:00,
2013-06-15 23:57:00,61.9,61.3,29.86,NE,45,0.0,-999.0,98,-99.99,,,0.00,Acu-Link.com,2013-06-16 03:57:00,